createdAt,value
2024-03-12T00:00:43.079Z,78.06
2024-03-12T00:03:13.270Z,78.44
2024-03-12T00:05:42.694Z,78.23
2024-03-12T00:08:11.549Z,78.44
2024-03-12T00:10:40.448Z,78.40
2024-03-12T00:13:11.435Z,78.06
2024-03-12T00:15:40.297Z,78.29
2024-03-12T00:18:09.450Z,78.15
2024-03-12T00:20:40.964Z,77.72
2024-03-12T00:23:09.681Z,78.17
2024-03-12T00:25:38.868Z,79.34
2024-03-12T00:28:10.525Z,78.56
2024-03-12T00:30:42.951Z,78.31
2024-03-12T00:33:24.043Z,78.18
2024-03-12T00:35:53.054Z,78.47
2024-03-12T00:38:21.929Z,78.30
2024-03-12T00:40:53.095Z,78.99
2024-03-12T00:43:22.711Z,78.58
2024-03-12T00:45:51.571Z,78.53
2024-03-12T00:48:20.564Z,78.30
2024-03-12T00:50:50.017Z,78.94
2024-03-12T00:53:19.406Z,79.39
2024-03-12T00:55:49.215Z,78.95
2024-03-12T00:58:22.322Z,78.40
2024-03-12T01:00:53.933Z,78.64
2024-03-12T01:03:25.909Z,78.65
2024-03-12T01:06:07.644Z,78.18
2024-03-12T01:08:36.628Z,78.78
2024-03-12T01:11:05.541Z,77.90
2024-03-12T01:13:35.376Z,78.51
2024-03-12T01:16:04.501Z,77.80
2024-03-12T01:18:33.737Z,77.62
2024-03-12T01:21:02.398Z,77.52
2024-03-12T01:23:31.220Z,77.88
2024-03-12T01:26:00.472Z,77.78
2024-03-12T01:28:29.523Z,78.61
2024-03-12T01:30:58.366Z,77.24
2024-03-12T01:33:29.473Z,77.76
2024-03-12T01:36:07.464Z,77.48
2024-03-12T01:38:36.787Z,77.75
2024-03-12T01:41:07.460Z,77.23
2024-03-12T01:43:37.519Z,77.37
2024-03-12T01:46:09.015Z,76.81
2024-03-12T01:48:50.901Z,76.97
2024-03-12T01:51:19.526Z,76.85
2024-03-12T01:53:49.860Z,77.14
2024-03-12T01:56:18.974Z,76.18
2024-03-12T01:58:47.822Z,76.83
2024-03-12T02:01:17.909Z,75.77
2024-03-12T02:03:53.768Z,76.29
2024-03-12T02:06:26.420Z,75.83
2024-03-12T02:08:55.795Z,76.21
2024-03-12T02:11:24.625Z,76.15
2024-03-12T02:13:53.387Z,77.06
2024-03-12T02:16:22.273Z,76.45
2024-03-12T02:18:50.944Z,76.51
2024-03-12T02:21:19.804Z,75.56
2024-03-12T02:23:48.564Z,76.44
2024-03-12T02:26:17.258Z,76.07
2024-03-12T02:28:46.079Z,76.19
2024-03-12T02:31:15.221Z,75.98
2024-03-12T02:33:44.213Z,76.24
2024-03-12T02:36:13.793Z,76.23
2024-03-12T02:38:42.744Z,76.25
2024-03-12T02:41:12.187Z,75.41
2024-03-12T02:43:41.336Z,75.54
2024-03-12T02:46:27.864Z,75.96
2024-03-12T02:48:56.656Z,75.46
2024-03-12T02:51:25.676Z,75.29
2024-03-12T02:53:54.394Z,75.29
2024-03-12T02:56:23.004Z,75.06
2024-03-12T02:58:51.823Z,75.05
2024-03-12T03:01:20.726Z,75.51
2024-03-12T03:03:49.674Z,75.07
2024-03-12T03:06:19.203Z,74.84
2024-03-12T03:08:48.236Z,75.04
2024-03-12T03:11:16.835Z,74.59
2024-03-12T03:13:46.122Z,74.80
2024-03-12T03:16:27.151Z,74.64
2024-03-12T03:18:57.186Z,74.77
2024-03-12T03:21:26.631Z,74.89
2024-03-12T03:23:55.486Z,75.35
2024-03-12T03:26:24.255Z,74.93
2024-03-12T03:28:53.102Z,74.16
2024-03-12T03:31:21.643Z,74.22
2024-03-12T03:33:50.478Z,74.40
2024-03-12T03:36:19.322Z,73.84
2024-03-12T03:38:48.162Z,74.92
2024-03-12T03:41:17.179Z,74.02
2024-03-12T03:43:46.472Z,73.98
2024-03-12T03:46:15.420Z,75.03
2024-03-12T03:48:44.105Z,74.45
2024-03-12T03:51:12.746Z,75.06
2024-03-12T03:53:41.943Z,73.59
2024-03-12T03:56:17.425Z,73.59
2024-03-12T03:59:03.114Z,73.29
2024-03-12T04:01:32.192Z,73.24
2024-03-12T04:04:12.845Z,73.29
2024-03-12T04:06:45.779Z,72.42
2024-03-12T04:09:14.430Z,71.10
2024-03-12T04:11:45.794Z,71.63
2024-03-12T04:14:15.122Z,72.07
2024-03-12T04:16:43.925Z,72.61
2024-03-12T04:19:12.496Z,71.98
2024-03-12T04:21:41.938Z,71.93
2024-03-12T04:24:12.736Z,71.60
2024-03-12T04:26:42.195Z,71.72
2024-03-12T04:29:12.333Z,72.56
2024-03-12T04:31:41.683Z,72.30
2024-03-12T04:34:23.418Z,71.61
2024-03-12T04:36:52.770Z,71.55
2024-03-12T04:39:41.834Z,72.33
2024-03-12T04:42:11.136Z,72.92
2024-03-12T04:44:39.820Z,73.01
2024-03-12T04:47:21.178Z,72.21
2024-03-12T04:49:50.239Z,72.66
2024-03-12T04:52:19.040Z,73.99
2024-03-12T04:54:48.482Z,73.23
2024-03-12T04:57:17.404Z,73.12
2024-03-12T04:59:46.567Z,73.60
2024-03-12T05:02:17.667Z,72.83
2024-03-12T05:04:46.504Z,72.51
2024-03-12T05:07:15.141Z,73.61
2024-03-12T05:09:44.823Z,72.80
2024-03-12T05:12:13.434Z,72.31
2024-03-12T05:14:42.283Z,72.50
2024-03-12T05:17:11.246Z,72.12
2024-03-12T05:19:42.735Z,71.69
2024-03-12T05:22:11.441Z,72.16
2024-03-12T05:24:40.304Z,71.76
2024-03-12T05:27:09.129Z,70.98
2024-03-12T05:29:45.301Z,71.36
2024-03-12T05:32:19.715Z,70.11
2024-03-12T05:34:54.576Z,70.87
2024-03-12T05:37:42.734Z,69.92
2024-03-12T05:40:20.767Z,68.68
2024-03-12T05:43:07.968Z,69.84
2024-03-12T05:45:55.051Z,69.75
2024-03-12T05:48:23.939Z,69.29
2024-03-12T05:50:53.187Z,68.60
2024-03-12T05:53:23.012Z,69.73
2024-03-12T05:55:51.871Z,68.57
2024-03-12T05:58:20.828Z,68.27
2024-03-12T06:00:50.384Z,67.96
2024-03-12T06:03:19.397Z,67.12
2024-03-12T06:05:47.969Z,68.70
2024-03-12T06:08:17.414Z,68.43
2024-03-12T06:10:46.235Z,67.27
2024-03-12T06:13:15.195Z,67.69
2024-03-12T06:15:44.187Z,67.54
2024-03-12T06:18:14.151Z,66.99
2024-03-12T06:20:54.648Z,66.81
2024-03-12T06:23:25.015Z,67.06
2024-03-12T06:26:06.035Z,66.81
2024-03-12T06:28:35.029Z,66.83
2024-03-12T06:31:06.023Z,66.51
2024-03-12T06:33:40.136Z,65.87
2024-03-12T06:36:09.835Z,65.96
2024-03-12T06:38:38.468Z,66.07
2024-03-12T06:41:09.367Z,66.18
2024-03-12T06:43:42.640Z,66.20
2024-03-12T06:46:13.950Z,65.34
2024-03-12T06:48:43.205Z,65.13
2024-03-12T06:51:12.638Z,64.88
2024-03-12T06:53:41.914Z,64.63
2024-03-12T06:56:13.277Z,64.44
2024-03-12T06:58:46.762Z,64.65
2024-03-12T07:01:16.007Z,64.72
2024-03-12T07:03:45.120Z,64.71
2024-03-12T07:06:14.268Z,64.02
2024-03-12T07:08:45.123Z,64.53
2024-03-12T07:11:27.834Z,63.53
2024-03-12T07:14:04.220Z,63.71
2024-03-12T07:16:34.222Z,63.87
2024-03-12T07:19:03.052Z,63.15
2024-03-12T07:21:31.734Z,63.64
2024-03-12T07:24:00.736Z,62.72
2024-03-12T07:26:30.363Z,63.66
2024-03-12T07:28:59.035Z,62.64
2024-03-12T07:31:27.763Z,63.13
2024-03-12T07:33:58.821Z,63.11
2024-03-12T07:36:39.880Z,62.56
2024-03-12T07:39:11.156Z,62.42
2024-03-12T07:41:41.065Z,61.83
2024-03-12T07:44:10.373Z,62.39
2024-03-12T07:46:39.166Z,62.05
2024-03-12T07:49:12.389Z,62.20
2024-03-12T07:51:41.399Z,62.19
2024-03-12T07:54:10.103Z,62.42
2024-03-12T07:56:38.972Z,62.71
2024-03-12T07:59:09.642Z,61.82
2024-03-12T08:01:38.286Z,61.89
2024-03-12T08:04:07.173Z,62.38
2024-03-12T08:06:37.129Z,62.55
2024-03-12T08:09:05.991Z,62.25
2024-03-12T08:11:35.873Z,62.28
2024-03-12T08:14:08.872Z,61.81
2024-03-12T08:16:40.609Z,62.37
2024-03-12T08:19:12.322Z,62.11
2024-03-12T08:21:41.372Z,61.89
2024-03-12T08:24:12.654Z,61.23
2024-03-12T08:26:41.453Z,61.70
2024-03-12T08:29:10.075Z,61.01
2024-03-12T08:31:47.453Z,62.03
2024-03-12T08:34:20.503Z,61.45
2024-03-12T08:36:52.092Z,61.25
2024-03-12T08:39:21.092Z,61.71
2024-03-12T08:41:49.861Z,61.77
2024-03-12T08:44:18.476Z,62.34
2024-03-12T08:46:47.202Z,61.67
2024-03-12T08:49:16.143Z,61.99
2024-03-12T08:51:44.925Z,61.64
2024-03-12T08:54:15.982Z,61.94
2024-03-12T08:56:44.811Z,61.63
2024-03-12T08:59:17.646Z,61.42
2024-03-12T09:01:46.555Z,62.08
2024-03-12T09:04:15.566Z,61.88
2024-03-12T09:06:44.545Z,61.80
2024-03-12T09:09:17.747Z,61.41
2024-03-12T09:11:48.385Z,62.19
2024-03-12T09:14:17.128Z,62.12
2024-03-12T09:16:46.347Z,62.13
2024-03-12T09:19:15.229Z,62.19
2024-03-12T09:21:44.189Z,61.76
2024-03-12T09:24:12.807Z,61.92
2024-03-12T09:26:41.648Z,61.42
2024-03-12T09:29:10.374Z,62.53
2024-03-12T09:31:40.908Z,62.56
2024-03-12T09:34:11.501Z,62.70
2024-03-12T09:36:41.708Z,62.75
2024-03-12T09:39:12.730Z,63.02
2024-03-12T09:41:54.063Z,62.48
2024-03-12T09:44:50.313Z,62.55
2024-03-12T09:47:19.652Z,63.06
2024-03-12T09:49:53.382Z,62.86
2024-03-12T09:52:22.256Z,62.82
2024-03-12T09:54:51.256Z,62.69
2024-03-12T09:57:20.521Z,63.21
2024-03-12T09:59:49.726Z,62.94
2024-03-12T10:02:18.373Z,63.68
2024-03-12T10:04:49.301Z,63.47
2024-03-12T10:07:21.518Z,63.08
2024-03-12T10:09:51.400Z,62.96
2024-03-12T10:12:23.531Z,63.32
2024-03-12T10:14:54.122Z,63.28
2024-03-12T10:17:22.866Z,63.85
2024-03-12T10:19:52.590Z,63.42
2024-03-12T10:22:28.391Z,64.00
2024-03-12T10:25:10.895Z,63.35
2024-03-12T10:30:28.482Z,63.61
2024-03-12T10:32:57.715Z,64.22
2024-03-12T10:35:27.201Z,63.68
2024-03-12T10:37:56.624Z,63.81
2024-03-12T10:40:28.114Z,64.50
2024-03-12T10:43:03.671Z,64.01
2024-03-12T10:45:32.544Z,63.52
2024-03-12T10:48:08.056Z,64.31
2024-03-12T10:50:39.433Z,63.88
2024-03-12T10:53:23.695Z,64.14
2024-03-12T10:55:52.678Z,64.69
2024-03-12T10:58:24.085Z,64.13
2024-03-12T11:00:53.614Z,64.72
2024-03-12T11:03:25.272Z,64.71
2024-03-12T11:05:56.168Z,64.79
2024-03-12T11:08:25.846Z,64.38
2024-03-12T11:10:55.350Z,64.77
2024-03-12T11:13:24.710Z,64.78
2024-03-12T11:15:59.137Z,64.47
2024-03-12T11:18:36.490Z,64.60
2024-03-12T11:21:06.637Z,65.14
2024-03-12T11:23:38.733Z,65.46
2024-03-12T11:26:08.995Z,64.25
2024-03-12T11:28:52.322Z,64.49
2024-03-12T11:31:21.656Z,64.71
2024-03-12T11:33:53.996Z,65.24
2024-03-12T11:36:24.109Z,64.45
2024-03-12T11:38:54.701Z,65.27
2024-03-12T11:41:23.620Z,65.08
2024-03-12T11:43:52.558Z,64.62
2024-03-12T11:46:44.260Z,65.62
2024-03-12T11:49:34.529Z,65.37
2024-03-12T11:52:03.691Z,65.18
2024-03-12T11:54:44.959Z,65.94
2024-03-12T11:57:26.762Z,65.05
2024-03-12T11:59:58.330Z,65.79
2024-03-12T12:02:28.441Z,65.76
2024-03-12T12:04:58.256Z,66.07
2024-03-12T12:07:29.759Z,65.51
2024-03-12T12:09:58.615Z,66.73
2024-03-12T12:12:29.222Z,65.77
2024-03-12T12:14:58.597Z,66.25
2024-03-12T12:17:27.992Z,66.30
2024-03-12T12:20:16.895Z,66.13
2024-03-12T12:22:50.362Z,67.02
2024-03-12T12:25:20.642Z,66.84
2024-03-12T12:27:49.428Z,66.54
2024-03-12T12:30:22.649Z,66.63
2024-03-12T12:32:53.785Z,67.20
2024-03-12T12:35:24.814Z,66.74
2024-03-12T12:37:54.488Z,66.88
2024-03-12T12:40:23.462Z,67.39
2024-03-12T12:42:55.538Z,67.54
2024-03-12T12:45:26.185Z,67.64
2024-03-12T12:47:56.226Z,67.71
2024-03-12T12:50:29.742Z,67.37
2024-03-12T12:53:02.757Z,67.88
2024-03-12T12:55:32.387Z,67.86
2024-03-12T12:58:03.551Z,67.66
2024-03-12T13:00:42.169Z,67.31
2024-03-12T13:03:18.754Z,68.03
2024-03-12T13:05:52.910Z,68.48
2024-03-12T13:08:26.812Z,67.67
2024-03-12T13:11:06.999Z,68.35
2024-03-12T13:13:37.279Z,67.84
2024-03-12T13:16:17.321Z,68.26
2024-03-12T13:18:54.481Z,68.66
2024-03-12T13:21:26.954Z,69.25
2024-03-12T13:23:56.271Z,68.74
2024-03-12T13:26:25.476Z,68.97
2024-03-12T13:28:57.618Z,67.86
2024-03-12T13:31:27.195Z,69.11
2024-03-12T13:33:56.475Z,68.97
2024-03-12T13:36:37.478Z,68.85
2024-03-12T13:39:08.371Z,69.38
2024-03-12T13:41:37.926Z,69.31
2024-03-12T13:44:06.890Z,69.55
2024-03-12T13:46:42.253Z,68.36
2024-03-12T13:49:15.694Z,68.94
2024-03-12T13:51:47.538Z,69.35
2024-03-12T13:54:17.091Z,69.34
2024-03-12T13:56:47.050Z,69.44
2024-03-12T13:59:19.331Z,69.88
2024-03-12T14:01:51.391Z,68.82
2024-03-12T14:04:20.051Z,68.58
2024-03-12T14:06:49.425Z,70.18
2024-03-12T14:09:19.195Z,69.64
2024-03-12T14:11:48.384Z,69.34
2024-03-12T14:14:17.277Z,69.60
2024-03-12T14:16:46.205Z,69.51
2024-03-12T14:19:15.102Z,69.08
2024-03-12T14:21:43.818Z,70.10
2024-03-12T14:24:12.744Z,69.77
2024-03-12T14:26:41.884Z,69.73
2024-03-12T14:29:12.408Z,69.96
2024-03-12T14:31:43.207Z,69.96
2024-03-12T14:34:12.745Z,69.38
2024-03-12T14:36:41.959Z,69.68
2024-03-12T14:39:14.250Z,70.27
2024-03-12T14:41:43.627Z,69.90
2024-03-12T14:44:13.352Z,70.51
2024-03-12T14:46:42.835Z,70.11
2024-03-12T14:49:12.126Z,69.97
2024-03-12T14:51:43.603Z,70.23
2024-03-12T14:54:12.724Z,70.69
2024-03-12T14:56:42.125Z,70.26
2024-03-12T14:59:11.173Z,70.21
2024-03-12T15:01:41.722Z,70.32
2024-03-12T15:04:10.883Z,70.31
2024-03-12T15:06:42.376Z,70.22
2024-03-12T15:09:15.584Z,70.10
2024-03-12T15:11:45.085Z,70.14
2024-03-12T15:14:14.186Z,69.52
2024-03-12T15:16:43.958Z,69.98
2024-03-12T15:19:13.918Z,69.82
2024-03-12T15:21:42.982Z,69.85
2024-03-12T15:24:13.264Z,70.58
2024-03-12T15:26:42.606Z,70.23
2024-03-12T15:29:11.704Z,70.21
2024-03-12T15:31:41.707Z,69.83
2024-03-12T15:34:10.750Z,69.89
2024-03-12T15:36:40.764Z,70.73
2024-03-12T15:39:11.506Z,70.35
2024-03-12T15:41:40.529Z,69.37
2024-03-12T15:44:09.550Z,70.85
2024-03-12T15:46:38.969Z,70.76
2024-03-12T15:49:08.166Z,70.97
2024-03-12T15:51:38.638Z,70.14
2024-03-12T15:54:11.164Z,70.83
2024-03-12T15:56:46.195Z,70.89
2024-03-12T15:59:28.166Z,71.21
2024-03-12T16:01:57.213Z,70.50
2024-03-12T16:04:27.021Z,71.11
2024-03-12T16:06:55.943Z,71.17
2024-03-12T16:09:25.055Z,70.92
2024-03-12T16:11:55.648Z,70.47
2024-03-12T16:14:24.305Z,70.42
2024-03-12T16:16:53.107Z,70.65
2024-03-12T16:19:23.897Z,70.38
2024-03-12T16:21:53.775Z,70.36
2024-03-12T16:24:22.909Z,70.24
2024-03-12T16:26:54.468Z,70.20
2024-03-12T16:29:25.489Z,70.43
2024-03-12T16:31:54.980Z,71.79
2024-03-12T16:34:27.342Z,71.40
2024-03-12T16:36:56.291Z,71.27
2024-03-12T16:39:26.006Z,70.57
2024-03-12T16:41:58.221Z,70.46
2024-03-12T16:44:27.526Z,70.88
2024-03-12T16:46:56.175Z,70.52
2024-03-12T16:49:24.924Z,71.09
2024-03-12T16:51:54.950Z,71.46
2024-03-12T16:54:23.912Z,71.77
2024-03-12T16:56:55.481Z,71.78
2024-03-12T16:59:25.377Z,72.29
2024-03-12T17:01:54.347Z,71.56
2024-03-12T17:04:35.155Z,71.45
2024-03-12T17:07:10.965Z,71.57
2024-03-12T17:09:43.542Z,71.20
2024-03-12T17:12:14.461Z,70.94
2024-03-12T17:14:43.470Z,70.65
2024-03-12T17:17:15.914Z,70.91
2024-03-12T17:19:45.537Z,71.11
2024-03-12T17:22:15.066Z,71.41
2024-03-12T17:24:44.397Z,71.97
2024-03-12T17:27:16.004Z,71.33
2024-03-12T17:29:58.931Z,70.63
2024-03-12T17:32:28.504Z,70.17
2024-03-12T17:34:59.575Z,71.10
2024-03-12T17:37:36.143Z,71.46
2024-03-12T17:40:15.990Z,71.05
2024-03-12T17:42:46.677Z,71.68
2024-03-12T17:45:17.465Z,71.72
2024-03-12T17:47:52.309Z,71.40
2024-03-12T17:50:23.589Z,71.13
2024-03-12T17:52:54.144Z,71.34
2024-03-12T17:55:23.756Z,71.63
2024-03-12T17:57:54.560Z,71.64
2024-03-12T18:00:24.294Z,71.36
2024-03-12T18:02:53.886Z,72.20
2024-03-12T18:05:23.723Z,71.88
2024-03-12T18:08:06.797Z,72.11
2024-03-12T18:10:37.447Z,71.04
2024-03-12T18:13:06.628Z,71.32
2024-03-12T18:15:36.941Z,70.35
2024-03-12T18:18:06.802Z,70.50
2024-03-12T18:20:37.865Z,70.62
2024-03-12T18:23:06.749Z,71.64
2024-03-12T18:25:37.285Z,71.64
2024-03-12T18:28:06.477Z,70.83
2024-03-12T18:30:35.844Z,70.60
2024-03-12T18:33:06.287Z,70.29
2024-03-12T18:35:35.206Z,71.67
2024-03-12T18:38:05.291Z,71.32
2024-03-12T18:40:34.015Z,71.28
2024-03-12T18:43:05.218Z,71.39
2024-03-12T18:45:33.848Z,72.32
2024-03-12T18:48:05.927Z,72.25
2024-03-12T18:50:35.337Z,71.80
2024-03-12T18:53:07.744Z,71.64
2024-03-12T18:55:37.305Z,72.70
2024-03-12T18:58:06.663Z,71.53
2024-03-12T19:00:37.109Z,71.36
2024-03-12T19:03:16.752Z,72.18
2024-03-12T19:05:53.981Z,72.45
2024-03-12T19:08:23.204Z,71.64
2024-03-12T19:10:52.322Z,71.81
2024-03-12T19:13:22.551Z,72.26
2024-03-12T19:15:51.617Z,72.32
2024-03-12T19:18:24.763Z,72.53
2024-03-12T19:20:54.974Z,71.29
2024-03-12T19:23:25.772Z,71.95
2024-03-12T19:25:56.788Z,71.73
2024-03-12T19:28:25.838Z,71.93
2024-03-12T19:30:55.466Z,71.90
2024-03-12T19:33:24.912Z,71.74
2024-03-12T19:35:55.613Z,72.35
2024-03-12T19:38:25.446Z,71.63
2024-03-12T19:40:55.715Z,72.81
2024-03-12T19:43:26.734Z,72.97
2024-03-12T19:46:00.667Z,71.80
2024-03-12T19:48:30.505Z,72.63
2024-03-12T19:50:59.352Z,72.59
2024-03-12T19:53:28.467Z,72.40
2024-03-12T19:55:58.039Z,71.56
2024-03-12T19:58:30.363Z,71.56
2024-03-12T20:01:01.807Z,71.35
2024-03-12T20:03:30.617Z,70.84
2024-03-12T20:06:00.298Z,71.36
2024-03-12T20:08:28.992Z,71.97
2024-03-12T20:10:58.139Z,70.89
2024-03-12T20:13:28.036Z,70.78
2024-03-12T20:15:56.982Z,70.51
2024-03-12T20:18:29.990Z,70.85
2024-03-12T20:20:58.555Z,70.44
2024-03-12T20:23:28.286Z,71.00
2024-03-12T20:25:56.993Z,70.08
2024-03-12T20:28:25.950Z,70.88
2024-03-12T20:30:54.940Z,71.20
2024-03-12T20:33:26.062Z,72.15
2024-03-12T20:35:55.929Z,71.90
2024-03-12T20:38:25.719Z,71.65
2024-03-12T20:40:54.909Z,71.42
2024-03-12T20:43:23.610Z,71.21
2024-03-12T20:45:52.950Z,70.95
2024-03-12T20:48:33.972Z,71.18
2024-03-12T20:51:05.311Z,71.37
2024-03-12T20:53:35.776Z,71.80
2024-03-12T20:56:06.174Z,71.72
2024-03-12T20:58:34.972Z,72.05
2024-03-12T21:01:04.707Z,71.60
2024-03-12T21:03:35.780Z,71.46
2024-03-12T21:06:16.736Z,70.61
2024-03-12T21:08:47.821Z,70.91
2024-03-12T21:11:17.183Z,70.23
2024-03-12T21:13:58.237Z,69.83
2024-03-12T21:16:27.275Z,70.33
2024-03-12T21:18:55.900Z,70.17
2024-03-12T21:21:24.637Z,69.94
2024-03-12T21:23:54.185Z,70.08
2024-03-12T21:26:25.494Z,69.69
2024-03-12T21:28:54.506Z,70.51
2024-03-12T21:31:23.868Z,70.45
2024-03-12T21:33:53.438Z,71.05
2024-03-12T21:36:22.244Z,71.12
2024-03-12T21:38:51.151Z,71.54
2024-03-12T21:41:21.108Z,71.38
2024-03-12T21:43:50.728Z,71.67
2024-03-12T21:46:22.861Z,72.11
2024-03-12T21:48:52.397Z,71.25
2024-03-12T21:51:21.371Z,71.83
2024-03-12T21:53:50.661Z,72.26
2024-03-12T21:56:19.365Z,71.88
2024-03-12T21:58:52.827Z,70.85
2024-03-12T22:01:22.354Z,71.40
2024-03-12T22:03:52.234Z,71.39
2024-03-12T22:06:22.149Z,71.19
2024-03-12T22:08:56.349Z,71.05
2024-03-12T22:11:25.340Z,72.33
2024-03-12T22:13:54.230Z,72.25
2024-03-12T22:16:23.167Z,71.54
2024-03-12T22:18:51.927Z,71.44
2024-03-12T22:21:26.018Z,71.98
2024-03-12T22:23:55.429Z,71.72
2024-03-12T22:26:24.705Z,71.31
2024-03-12T22:28:56.520Z,72.22
2024-03-12T22:31:25.424Z,72.48
2024-03-12T22:33:55.497Z,71.22
2024-03-12T22:36:25.431Z,71.74
2024-03-12T22:38:55.553Z,72.02
2024-03-12T22:41:24.688Z,72.00
2024-03-12T22:43:53.925Z,71.86
2024-03-12T22:46:23.848Z,71.26
2024-03-12T22:48:53.124Z,72.21
2024-03-12T22:51:22.267Z,71.09
2024-03-12T22:53:51.363Z,71.41
2024-03-12T22:56:21.258Z,71.70
2024-03-12T22:58:51.090Z,71.20
2024-03-12T23:01:20.863Z,71.27
2024-03-12T23:03:50.518Z,72.62
2024-03-12T23:06:19.921Z,73.69
2024-03-12T23:08:50.287Z,72.60
2024-03-12T23:11:20.957Z,72.32
2024-03-12T23:13:52.950Z,73.19
2024-03-12T23:16:21.587Z,72.31
2024-03-12T23:18:54.915Z,72.16
2024-03-12T23:21:23.706Z,71.83
2024-03-12T23:23:55.219Z,73.09
2024-03-12T23:26:25.385Z,72.16
2024-03-12T23:28:55.130Z,72.68
2024-03-12T23:31:24.034Z,73.06
2024-03-12T23:33:54.908Z,73.33
2024-03-12T23:36:29.353Z,72.77
2024-03-12T23:38:58.686Z,73.37
2024-03-12T23:41:27.552Z,72.97
2024-03-12T23:43:56.889Z,72.26
2024-03-12T23:46:26.569Z,72.96
2024-03-12T23:48:56.246Z,72.79
2024-03-12T23:51:25.107Z,72.33
2024-03-12T23:53:53.846Z,73.09
2024-03-12T23:56:22.971Z,72.38
2024-03-12T23:58:52.036Z,72.31
